Overcast
Mixed with cirrus with some thunderstorm clouds possible
Mixed with cirrus with some thunderstorm clouds possible
Mixed with cirrus with some thunderstorm clouds possible
Mixed with cirrus with some thunderstorm clouds possible
Mixed with cirrus with some thunderstorm clouds possible
Mixed with cirrus with some thunderstorm clouds possible
Mixed with cirrus with some thunderstorm clouds possible
Mixed with cirrus with some thunderstorm clouds possible
(°F)
81°
81°
80°
80°
80°
80°
79°
79°
79°
79°
80°
80°
80°
80°
82°
82°
83°
83°
(°F)
91°
90°
90°
89°
89°
90°
90°
92°
93°
SSE
SE
ESE
SE
ESE
ESE
ESE
SE
S
(mph)
2-13
2-13
2-14
2-13
2-11
2-11
2-13
2-14
2-14
(in)
0
0
0
0
0
0
0
0
0
(%)
24
12
12
12
12
0
12
12
35

Sun elevation

/ -47.3°
sun-icon
UV 4
05:57
19:03
Waning gibbous moon (222°)
21:32
08:39

METAR for Chiang Mai (VTCC)

Time Conditions Temperature/
Dewpoint
Wind Visibility Weather Clouds Pressure Change Raw
VFR 80.6°F / 75.2°F 240º 2kt 9700m - Broken Clouds 3500ft 1002 No Significant change VTCC 241800Z 24002KT 9999 BKN035 27/24 Q1002 NOSIG
VFR 80.6°F / 75.2°F 310º 1kt 9700m - Broken Clouds 3500ft 1002 No Significant change VTCC 241730Z 31001KT 9999 BKN035 27/24 Q1002 NOSIG
VFR 82.4°F / 71.6°F 140º 3kt 9700m - Broken Clouds 3500ft 1002 No Significant change VTCC 241700Z 14003KT 9999 BKN035 28/22 Q1002 NOSIG
VFR 80.6°F / 75.2°F 2kt 9700m - Broken Clouds 3500ft 1002 No Significant change VTCC 241630Z VRB02KT 9999 BKN035 27/24 Q1002 NOSIG
VFR 80.6°F / 75.2°F 50º variable 360º to 150º 3kt 9700m - Broken Clouds 3500ft 1003 No Significant change VTCC 241600Z 05003KT 360V150 9999 BKN035 27/24 Q1003 NOSIG
VFR 80.6°F / 77°F 3kt 9700m - Broken Clouds 3500ft 1003 No Significant change VTCC 241530Z VRB03KT 9999 BKN035 27/25 Q1003 NOSIG
VFR 82.4°F / 71.6°F 190º variable 160º to 220º 4kt 9700m - Broken Clouds 3500ft 1002 No Significant change VTCC 241500Z 19004KT 160V220 9999 BKN035 28/22 Q1002 NOSIG
VFR 84.2°F / 71.6°F 180º 6kt 9700m - Broken Clouds 3500ft 1002 No Significant change VTCC 241430Z 18006KT 9999 BKN035 29/22 Q1002 NOSIG
VFR 84.2°F / 73.4°F 190º variable 150º to 210º 4kt 9700m - Broken Clouds 3500ft 1002 Temporary: Light Thunderstorm Rain . Few Clouds 2500ft. Cumulonimbus Broken Clouds 3500ft. VTCC 241400Z 19004KT 150V210 9999 BKN035 29/23 Q1002 TEMPO -TSRA FEW025CB BKN035
VFR 84.2°F / 73.4°F 220º variable 190º to 250º 4kt 9700m - Broken Clouds 3500ft 1001 No Significant change VTCC 241330Z 22004KT 190V250 9999 BKN035 29/23 Q1001 NOSIG
VFR 84.2°F / 75.2°F 260º variable 210º to 280º 3kt 9700m - Broken Clouds 3500ft 1001 No Significant change VTCC 241300Z 26003KT 210V280 9999 BKN035 29/24 Q1001 NOSIG
VFR 84.2°F / 75.2°F 270º 3kt 9700m - Broken Clouds 3500ft 1001 No Significant change VTCC 241230Z 27003KT 9999 BKN035 29/24 Q1001 NOSIG
VFR 84.2°F / 75.2°F 280º variable 240º to 320º 5kt 9700m - Broken Clouds 3500ft 1000 No Significant change VTCC 241200Z 28005KT 240V320 9999 BKN035 29/24 Q1000 NOSIG
VFR 84.2°F / 75.2°F 240º 7kt 9700m - Broken Clouds 3500ft 1000 No Significant change VTCC 241130Z 24007KT 9999 BKN035 29/24 Q1000 NOSIG
VFR 86°F / 75.2°F 240º variable 190º to 280º 7kt 9700m - Broken Clouds 3500ft 999 No Significant change VTCC 241100Z 24007KT 190V280 9999 BKN035 30/24 Q0999 NOSIG
VFR 82.4°F / 75.2°F 240º 9kt 9700m - Broken Clouds 3500ft 1000 No Significant change VTCC 241030Z 24009KT 9999 BKN035 28/24 Q1000 NOSIG
VFR 87.8°F / 73.4°F 210º 13kt 9700m - Broken Clouds 3500ft 999 No Significant change VTCC 241000Z 21013KT 9999 BKN035 31/23 Q0999 NOSIG
VFR 89.6°F / 73.4°F 190º 11kt 9700m Light Rain 1.00mm precipitation Few Clouds 2500ft
Broken Clouds 3500ft
999 Temporary: Light Thunderstorm Rain . VTCC 240930Z 19011KT 9999 -RA FEW025CB BKN035 32/23 Q0999 TEMPO -TSRA
VFR 89.6°F / 73.4°F 190º 9kt 9700m in the Vicinity Showers Few Clouds 2500ft
Broken Clouds 3500ft
999 No Significant change VTCC 240900Z 19009KT 9999 VCSH FEW025CB BKN035 32/23 Q0999 NOSIG
VFR 89.6°F / 75.2°F 180º 11kt 9700m - Broken Clouds 3500ft 1000 No Significant change VTCC 240830Z 18011KT 9999 BKN035 32/24 Q1000 NOSIG
VFR 89.6°F / 75.2°F 190º 10kt 9700m - Broken Clouds 3500ft 1000 No Significant change VTCC 240800Z 19010KT 9999 BKN035 32/24 Q1000 NOSIG
VFR 89.6°F / 75.2°F 190º 11kt 9700m - Broken Clouds 3500ft 1001 No Significant change VTCC 240730Z 19011KT 9999 BKN035 32/24 Q1001 NOSIG
VFR 91.4°F / 75.2°F 210º variable 130º to 280º 7kt 9700m - Broken Clouds 3500ft 1001 No Significant change VTCC 240700Z 21007KT 130V280 9999 BKN035 33/24 Q1001 NOSIG
VFR 89.6°F / 75.2°F 340º variable 260º to 050º 4kt 9700m - Broken Clouds 3500ft 1002 No Significant change VTCC 240630Z 34004KT 260V050 9999 BKN035 32/24 Q1002 NOSIG

VFR

80.6°F / 75.2°F

[More]
Wind 240º 2kt
Visibility 9700m
Weather -
Clouds Broken Clouds 3500ft
Pressure 1002
Change No Significant change
Raw VTCC 241800Z 24002KT 9999 BKN035 27/24 Q1002 NOSIG

VFR

80.6°F / 75.2°F

[More]
Wind 310º 1kt
Visibility 9700m
Weather -
Clouds Broken Clouds 3500ft
Pressure 1002
Change No Significant change
Raw VTCC 241730Z 31001KT 9999 BKN035 27/24 Q1002 NOSIG

VFR

82.4°F / 71.6°F

[More]
Wind 140º 3kt
Visibility 9700m
Weather -
Clouds Broken Clouds 3500ft
Pressure 1002
Change No Significant change
Raw VTCC 241700Z 14003KT 9999 BKN035 28/22 Q1002 NOSIG

VFR

80.6°F / 75.2°F

[More]
Wind 2kt
Visibility 9700m
Weather -
Clouds Broken Clouds 3500ft
Pressure 1002
Change No Significant change
Raw VTCC 241630Z VRB02KT 9999 BKN035 27/24 Q1002 NOSIG

VFR

80.6°F / 75.2°F

[More]
Wind 50º variable 360º to 150º 3kt
Visibility 9700m
Weather -
Clouds Broken Clouds 3500ft
Pressure 1003
Change No Significant change
Raw VTCC 241600Z 05003KT 360V150 9999 BKN035 27/24 Q1003 NOSIG

VFR

80.6°F / 77°F

[More]
Wind 3kt
Visibility 9700m
Weather -
Clouds Broken Clouds 3500ft
Pressure 1003
Change No Significant change
Raw VTCC 241530Z VRB03KT 9999 BKN035 27/25 Q1003 NOSIG

VFR

82.4°F / 71.6°F

[More]
Wind 190º variable 160º to 220º 4kt
Visibility 9700m
Weather -
Clouds Broken Clouds 3500ft
Pressure 1002
Change No Significant change
Raw VTCC 241500Z 19004KT 160V220 9999 BKN035 28/22 Q1002 NOSIG

VFR

84.2°F / 71.6°F

[More]
Wind 180º 6kt
Visibility 9700m
Weather -
Clouds Broken Clouds 3500ft
Pressure 1002
Change No Significant change
Raw VTCC 241430Z 18006KT 9999 BKN035 29/22 Q1002 NOSIG

VFR

84.2°F / 73.4°F

[More]
Wind 190º variable 150º to 210º 4kt
Visibility 9700m
Weather -
Clouds Broken Clouds 3500ft
Pressure 1002
Change Temporary: Light Thunderstorm Rain . Few Clouds 2500ft. Cumulonimbus Broken Clouds 3500ft.
Raw VTCC 241400Z 19004KT 150V210 9999 BKN035 29/23 Q1002 TEMPO -TSRA FEW025CB BKN035

VFR

84.2°F / 73.4°F

[More]
Wind 220º variable 190º to 250º 4kt
Visibility 9700m
Weather -
Clouds Broken Clouds 3500ft
Pressure 1001
Change No Significant change
Raw VTCC 241330Z 22004KT 190V250 9999 BKN035 29/23 Q1001 NOSIG

VFR

84.2°F / 75.2°F

[More]
Wind 260º variable 210º to 280º 3kt
Visibility 9700m
Weather -
Clouds Broken Clouds 3500ft
Pressure 1001
Change No Significant change
Raw VTCC 241300Z 26003KT 210V280 9999 BKN035 29/24 Q1001 NOSIG

VFR

84.2°F / 75.2°F

[More]
Wind 270º 3kt
Visibility 9700m
Weather -
Clouds Broken Clouds 3500ft
Pressure 1001
Change No Significant change
Raw VTCC 241230Z 27003KT 9999 BKN035 29/24 Q1001 NOSIG

VFR

84.2°F / 75.2°F

[More]
Wind 280º variable 240º to 320º 5kt
Visibility 9700m
Weather -
Clouds Broken Clouds 3500ft
Pressure 1000
Change No Significant change
Raw VTCC 241200Z 28005KT 240V320 9999 BKN035 29/24 Q1000 NOSIG

VFR

84.2°F / 75.2°F

[More]
Wind 240º 7kt
Visibility 9700m
Weather -
Clouds Broken Clouds 3500ft
Pressure 1000
Change No Significant change
Raw VTCC 241130Z 24007KT 9999 BKN035 29/24 Q1000 NOSIG

VFR

86°F / 75.2°F

[More]
Wind 240º variable 190º to 280º 7kt
Visibility 9700m
Weather -
Clouds Broken Clouds 3500ft
Pressure 999
Change No Significant change
Raw VTCC 241100Z 24007KT 190V280 9999 BKN035 30/24 Q0999 NOSIG

VFR

82.4°F / 75.2°F

[More]
Wind 240º 9kt
Visibility 9700m
Weather -
Clouds Broken Clouds 3500ft
Pressure 1000
Change No Significant change
Raw VTCC 241030Z 24009KT 9999 BKN035 28/24 Q1000 NOSIG

VFR

87.8°F / 73.4°F

[More]
Wind 210º 13kt
Visibility 9700m
Weather -
Clouds Broken Clouds 3500ft
Pressure 999
Change No Significant change
Raw VTCC 241000Z 21013KT 9999 BKN035 31/23 Q0999 NOSIG

VFR

89.6°F / 73.4°F

[More]
Wind 190º 11kt
Visibility 9700m
Weather Light Rain 1.00mm precipitation
Clouds Few Clouds 2500ft
Broken Clouds 3500ft
Pressure 999
Change Temporary: Light Thunderstorm Rain .
Raw VTCC 240930Z 19011KT 9999 -RA FEW025CB BKN035 32/23 Q0999 TEMPO -TSRA

VFR

89.6°F / 73.4°F

[More]
Wind 190º 9kt
Visibility 9700m
Weather in the Vicinity Showers
Clouds Few Clouds 2500ft
Broken Clouds 3500ft
Pressure 999
Change No Significant change
Raw VTCC 240900Z 19009KT 9999 VCSH FEW025CB BKN035 32/23 Q0999 NOSIG

VFR

89.6°F / 75.2°F

[More]
Wind 180º 11kt
Visibility 9700m
Weather -
Clouds Broken Clouds 3500ft
Pressure 1000
Change No Significant change
Raw VTCC 240830Z 18011KT 9999 BKN035 32/24 Q1000 NOSIG

VFR

89.6°F / 75.2°F

[More]
Wind 190º 10kt
Visibility 9700m
Weather -
Clouds Broken Clouds 3500ft
Pressure 1000
Change No Significant change
Raw VTCC 240800Z 19010KT 9999 BKN035 32/24 Q1000 NOSIG

VFR

89.6°F / 75.2°F

[More]
Wind 190º 11kt
Visibility 9700m
Weather -
Clouds Broken Clouds 3500ft
Pressure 1001
Change No Significant change
Raw VTCC 240730Z 19011KT 9999 BKN035 32/24 Q1001 NOSIG

VFR

91.4°F / 75.2°F

[More]
Wind 210º variable 130º to 280º 7kt
Visibility 9700m
Weather -
Clouds Broken Clouds 3500ft
Pressure 1001
Change No Significant change
Raw VTCC 240700Z 21007KT 130V280 9999 BKN035 33/24 Q1001 NOSIG

VFR

89.6°F / 75.2°F

[More]
Wind 340º variable 260º to 050º 4kt
Visibility 9700m
Weather -
Clouds Broken Clouds 3500ft
Pressure 1002
Change No Significant change
Raw VTCC 240630Z 34004KT 260V050 9999 BKN035 32/24 Q1002 NOSIG

TAF for Chiang Mai (VTCC)

From till


From till Wind 230º 5kt. Visibility 9700m. Scattered Clouds 3500ft.
Becoming from till
Temporarly from till Wind 180º 15kt. Gust 25kt. Visibility 4000m. Thunderstorm Rain . Few Clouds 2500ft. Broken Clouds 3500ft.
Becoming from till
Temporarly from till Light Thunderstorm Rain . Few Clouds 2500ft. Broken Clouds 3500ft.
Becoming from till

Raw: TAF VTCC 241700Z 2418/2524 23005KT 9999 SCT035 BECMG 2501/2503 17005KT TEMPO 2507/2513 18015G25KT 4000 TSRA FEW025CB BKN035 BECMG 2509/2511 26005KT TEMPO 2515/2520 -TSRA FEW025CB BKN035 BECMG 2516/2518 20005KT

Radar for Chiang Mai

Drizzle
Light
Moderate
Heavy
Very Heavy
Hail

The location marker is placed on Chiang Mai. Orange crosses indicate lightning. Data provided by nowcast.de (available in USA, Europe, Australia). Drizzle or light snow fall might be invisible for the radar. Precipitation intensity is colour coded, ranging from turquoise to red.

Current satellite images for Chiang Mai, Thailand

The location marker is placed on Chiang Mai. [More]

The real-time satellite image combines visible light during daytime with infrared radiation during nighttime. At night, the image is not dark as infrared radiation can detect temperature differences. Unfortunately, low clouds and fog are difficult to distinguish from ground temperatures and thus can be almost invisible during the night. Meteosat satellite images for Europe are updated in real-time every 5 minutes. GOES-16/GOES-17 (North & South America) and Himawari (Asia) images update every 10 minutes.

Precipitation is estimated from radar and satellites. Precipitation estimates from satellites are less accurate at night than during daytime.

© 2024 meteoblue, NOAA Satellites GOES-16 and EUMETSAT. Lightning data provided by nowcast.

Back to top
×
Hey there,
seems like you are using an ad blocker.

Advertising is essential to maintain our free website with unique detail and accuracy.

Please whitelist www.meteoblue.com on your ad blocker or consider buying one of our products:

Already have a subscription?
Then please login.